createdAt,value
2022-08-25T00:00:41.892Z,74.37
2022-08-25T00:03:08.317Z,74.43
2022-08-25T00:05:34.743Z,74.55
2022-08-25T00:08:01.128Z,74.43
2022-08-25T00:10:27.414Z,74.76
2022-08-25T00:12:53.818Z,75.00
2022-08-25T00:15:20.204Z,74.69
2022-08-25T00:17:46.570Z,74.53
2022-08-25T00:20:12.942Z,74.60
2022-08-25T00:22:39.395Z,75.32
2022-08-25T00:25:05.756Z,75.49
2022-08-25T00:27:32.125Z,75.39
2022-08-25T00:29:58.492Z,75.53
2022-08-25T00:32:24.902Z,75.52
2022-08-25T00:34:51.265Z,75.72
2022-08-25T00:37:17.641Z,75.81
2022-08-25T00:39:44.211Z,75.39
2022-08-25T00:42:16.161Z,75.31
2022-08-25T00:44:36.917Z,75.52
2022-08-25T00:47:03.315Z,75.91
2022-08-25T00:49:29.685Z,76.65
2022-08-25T00:51:56.178Z,77.68
2022-08-25T00:54:22.535Z,78.22
2022-08-25T00:56:48.941Z,78.27
2022-08-25T00:59:15.355Z,78.01
2022-08-25T01:01:41.776Z,77.69
2022-08-25T01:04:08.237Z,77.29
2022-08-25T01:06:34.648Z,76.56
2022-08-25T01:09:01.106Z,76.10
2022-08-25T01:11:27.466Z,76.25
2022-08-25T01:13:53.964Z,76.03
2022-08-25T01:16:20.373Z,76.51
2022-08-25T01:18:46.742Z,76.81
2022-08-25T01:21:13.167Z,76.97
2022-08-25T01:23:39.532Z,76.95
2022-08-25T01:26:05.910Z,76.58
2022-08-25T01:28:32.363Z,76.04
2022-08-25T01:30:58.870Z,75.73
2022-08-25T01:33:25.175Z,75.29
2022-08-25T01:35:51.658Z,75.30
2022-08-25T01:38:18.059Z,75.33
2022-08-25T01:40:44.428Z,75.34
2022-08-25T01:43:10.857Z,74.86
2022-08-25T01:45:37.235Z,75.58
2022-08-25T01:48:03.748Z,75.32
2022-08-25T01:50:30.054Z,75.83
2022-08-25T01:52:56.423Z,75.73
2022-08-25T01:55:22.799Z,75.12
2022-08-25T01:57:49.169Z,74.99
2022-08-25T02:00:15.542Z,74.33
2022-08-25T02:02:42.601Z,73.60
2022-08-25T02:05:08.278Z,73.76
2022-08-25T02:07:34.644Z,73.62
2022-08-25T02:10:03.436Z,73.79
2022-08-25T02:12:27.475Z,73.71
2022-08-25T02:14:53.845Z,73.82
2022-08-25T02:17:20.234Z,73.94
2022-08-25T02:19:46.603Z,74.26
2022-08-25T02:22:13.071Z,74.01
2022-08-25T02:24:39.502Z,74.19
2022-08-25T02:27:05.888Z,74.17
2022-08-25T02:29:32.279Z,74.34
2022-08-25T02:31:58.643Z,74.15
2022-08-25T02:34:25.136Z,74.44
2022-08-25T02:36:51.533Z,74.12
2022-08-25T02:39:17.901Z,74.65
2022-08-25T02:41:44.266Z,74.90
2022-08-25T02:44:10.659Z,75.24
2022-08-25T02:46:37.045Z,74.58
2022-08-25T02:49:03.532Z,74.48
2022-08-25T02:51:29.966Z,74.54
2022-08-25T02:53:56.326Z,74.26
2022-08-25T02:56:22.688Z,74.22
2022-08-25T02:58:49.284Z,74.28
2022-08-25T03:01:17.585Z,74.37
2022-08-25T03:03:42.244Z,74.74
2022-08-25T03:06:08.486Z,75.03
2022-08-25T03:08:34.898Z,74.90
2022-08-25T03:11:01.315Z,74.79
2022-08-25T03:13:27.728Z,74.58
2022-08-25T03:15:54.119Z,74.34
2022-08-25T03:18:20.627Z,74.66
2022-08-25T03:20:47.026Z,74.68
2022-08-25T03:23:13.433Z,74.88
2022-08-25T03:25:39.796Z,74.51
2022-08-25T03:28:06.379Z,74.37
2022-08-25T03:30:32.654Z,74.68
2022-08-25T03:32:59.009Z,74.87
2022-08-25T03:35:25.402Z,74.67
2022-08-25T03:37:51.795Z,74.73
2022-08-25T03:40:18.244Z,75.11
2022-08-25T03:42:45.260Z,74.99
2022-08-25T03:45:10.990Z,74.92
2022-08-25T03:47:37.374Z,74.89
2022-08-25T03:50:03.777Z,74.54
2022-08-25T03:52:30.281Z,74.61
2022-08-25T03:54:56.709Z,74.60
2022-08-25T03:57:23.074Z,74.89
2022-08-25T03:59:49.494Z,74.99
2022-08-25T04:02:15.919Z,74.63
2022-08-25T04:04:42.238Z,74.49
2022-08-25T04:07:08.668Z,74.56
2022-08-25T04:09:36.915Z,74.16
2022-08-25T04:12:01.463Z,74.61
2022-08-25T04:14:27.872Z,73.98
2022-08-25T04:16:54.298Z,74.19
2022-08-25T04:19:20.638Z,74.08
2022-08-25T04:21:47.065Z,73.66
2022-08-25T04:24:13.424Z,73.58
2022-08-25T04:26:39.930Z,73.50
2022-08-25T04:29:06.307Z,73.57
2022-08-25T04:31:32.842Z,73.06
2022-08-25T04:33:59.181Z,73.62
2022-08-25T04:36:25.659Z,73.56
2022-08-25T04:38:52.050Z,73.77
2022-08-25T04:41:18.429Z,73.30
2022-08-25T04:43:44.852Z,73.05
2022-08-25T04:46:11.380Z,73.11
2022-08-25T04:48:37.671Z,73.32
2022-08-25T04:51:04.049Z,72.99
2022-08-25T04:53:30.409Z,72.31
2022-08-25T04:55:59.580Z,71.55
2022-08-25T04:58:23.216Z,71.60
2022-08-25T05:00:49.650Z,71.50
2022-08-25T05:03:16.014Z,70.49
2022-08-25T05:05:42.435Z,70.27
2022-08-25T05:08:08.881Z,70.10
2022-08-25T05:10:35.280Z,69.62
2022-08-25T05:13:01.743Z,69.55
2022-08-25T05:15:28.129Z,69.22
2022-08-25T05:17:59.844Z,69.00
2022-08-25T05:20:20.918Z,67.40
2022-08-25T05:22:47.293Z,66.70
2022-08-25T05:25:13.689Z,67.00
2022-08-25T05:27:40.099Z,66.99
2022-08-25T05:30:06.475Z,67.47
2022-08-25T05:32:32.855Z,67.92
2022-08-25T05:34:59.253Z,67.87
2022-08-25T05:37:25.639Z,68.08
2022-08-25T05:39:52.044Z,67.31
2022-08-25T05:42:18.438Z,65.95
2022-08-25T05:44:44.866Z,65.20
2022-08-25T05:47:11.260Z,63.31
2022-08-25T05:49:37.730Z,62.75
2022-08-25T05:52:04.120Z,64.02
2022-08-25T05:54:30.596Z,63.88
2022-08-25T05:56:57.010Z,63.23
2022-08-25T05:59:23.466Z,64.83
2022-08-25T06:01:49.862Z,66.10
2022-08-25T06:04:16.233Z,66.02
2022-08-25T06:06:42.631Z,66.47
2022-08-25T06:09:08.999Z,66.35
2022-08-25T06:11:35.373Z,66.73
2022-08-25T06:14:01.861Z,66.73
2022-08-25T06:16:28.274Z,67.05
2022-08-25T06:18:54.639Z,67.01
2022-08-25T06:21:21.041Z,67.10
2022-08-25T06:23:47.414Z,66.07
2022-08-25T06:26:19.524Z,64.95
2022-08-25T06:28:40.248Z,63.92
2022-08-25T06:31:06.679Z,63.37
2022-08-25T06:33:33.189Z,61.72
2022-08-25T06:35:59.579Z,60.49
2022-08-25T06:38:25.961Z,59.43
2022-08-25T06:40:52.327Z,59.11
2022-08-25T06:43:18.731Z,58.14
2022-08-25T06:45:45.117Z,57.86
2022-08-25T06:48:11.682Z,58.13
2022-08-25T06:50:38.001Z,58.72
2022-08-25T06:53:04.373Z,58.71
2022-08-25T06:55:30.751Z,57.21
2022-08-25T06:57:57.143Z,56.78
2022-08-25T07:00:23.507Z,57.51
2022-08-25T07:02:50.007Z,59.72
2022-08-25T07:05:26.941Z,59.34
2022-08-25T07:07:44.000Z,59.69
2022-08-25T07:10:09.350Z,59.81
2022-08-25T07:12:36.301Z,58.26
2022-08-25T07:15:20.381Z,58.03
2022-08-25T07:17:29.028Z,58.49
2022-08-25T07:19:57.568Z,57.50
2022-08-25T07:22:21.801Z,57.74
2022-08-25T07:24:48.183Z,57.33
2022-08-25T07:27:14.549Z,56.03
2022-08-25T07:29:42.266Z,55.59
2022-08-25T07:32:07.314Z,56.83
2022-08-25T07:34:33.716Z,57.04
2022-08-25T07:37:00.115Z,56.78
2022-08-25T07:39:26.526Z,56.97
2022-08-25T07:41:52.920Z,57.10
2022-08-25T07:44:19.328Z,57.01
2022-08-25T07:46:45.837Z,55.33
2022-08-25T07:49:16.809Z,55.92
2022-08-25T07:51:38.536Z,55.79
2022-08-25T07:54:04.912Z,55.93
2022-08-25T07:56:31.327Z,53.31
2022-08-25T07:58:57.756Z,50.77
2022-08-25T08:01:24.252Z,48.56
2022-08-25T08:03:51.649Z,47.80
2022-08-25T08:06:17.013Z,49.16
2022-08-25T08:08:43.407Z,48.50
2022-08-25T08:11:09.825Z,49.15
2022-08-25T08:13:41.134Z,49.23
2022-08-25T08:16:02.671Z,48.17
2022-08-25T08:18:28.989Z,47.41
2022-08-25T08:20:55.378Z,45.67
2022-08-25T08:23:21.783Z,45.81
2022-08-25T08:25:48.151Z,44.79
2022-08-25T08:28:14.652Z,43.52
2022-08-25T08:30:53.328Z,41.56
2022-08-25T08:33:12.335Z,41.44
2022-08-25T08:35:34.051Z,39.51
2022-08-25T08:38:00.445Z,40.24
2022-08-25T08:40:26.894Z,40.65
2022-08-25T08:42:53.207Z,40.30
2022-08-25T08:45:19.573Z,39.74
2022-08-25T08:47:45.950Z,39.66
2022-08-25T08:50:12.343Z,40.31
2022-08-25T08:52:38.736Z,40.08
2022-08-25T08:55:06.496Z,38.67
2022-08-25T08:57:31.511Z,36.65
2022-08-25T08:59:58.278Z,37.58
2022-08-25T09:02:39.113Z,37.60
2022-08-25T09:04:50.671Z,38.71
2022-08-25T09:07:17.047Z,38.39
2022-08-25T09:09:43.498Z,38.61
2022-08-25T09:12:10.035Z,40.42
2022-08-25T09:14:36.444Z,41.35
2022-08-25T09:17:02.940Z,41.35
2022-08-25T09:19:29.193Z,41.93
2022-08-25T09:21:55.594Z,42.22
2022-08-25T09:24:21.979Z,41.54
2022-08-25T09:26:48.433Z,40.29
2022-08-25T09:29:16.836Z,39.36
2022-08-25T09:31:41.282Z,40.36
2022-08-25T09:34:07.614Z,39.55
2022-08-25T09:36:37.484Z,37.81
2022-08-25T09:39:00.495Z,35.42
2022-08-25T09:41:26.933Z,35.11
2022-08-25T09:43:53.354Z,37.33
2022-08-25T09:46:20.887Z,37.21
2022-08-25T09:48:46.451Z,36.90
2022-08-25T09:51:12.864Z,35.82
2022-08-25T09:53:39.272Z,36.54
2022-08-25T09:56:05.726Z,36.60
2022-08-25T09:58:32.189Z,36.30
2022-08-25T10:00:58.528Z,36.31
2022-08-25T10:03:25.287Z,37.32
2022-08-25T10:05:56.479Z,37.95
2022-08-25T10:08:18.325Z,38.61
2022-08-25T10:10:44.194Z,38.00
2022-08-25T10:13:10.582Z,37.28
2022-08-25T10:15:37.055Z,36.90
2022-08-25T10:18:03.350Z,36.73
2022-08-25T10:20:33.024Z,36.52
2022-08-25T10:22:56.172Z,36.31
2022-08-25T10:25:22.538Z,36.02
2022-08-25T10:27:48.931Z,35.06
2022-08-25T10:30:15.354Z,35.26
2022-08-25T10:32:41.736Z,34.90
2022-08-25T10:35:08.107Z,34.43
2022-08-25T10:37:34.485Z,34.19
2022-08-25T10:40:00.893Z,33.86
2022-08-25T10:42:27.246Z,33.92
2022-08-25T10:44:53.674Z,33.05
2022-08-25T10:47:20.103Z,33.02
2022-08-25T10:49:46.539Z,32.96
2022-08-25T10:52:12.971Z,34.55
2022-08-25T10:54:39.402Z,35.56
2022-08-25T10:57:08.112Z,35.42
2022-08-25T10:59:32.268Z,35.70
2022-08-25T11:01:58.701Z,34.98
2022-08-25T11:04:25.368Z,33.33
2022-08-25T11:06:54.591Z,32.25
2022-08-25T11:09:17.900Z,32.21
2022-08-25T11:11:44.287Z,32.12
2022-08-25T11:14:11.265Z,32.12
2022-08-25T11:16:37.309Z,31.95
2022-08-25T11:19:05.484Z,32.71
2022-08-25T11:21:29.836Z,32.59
2022-08-25T11:23:56.293Z,33.15
2022-08-25T11:26:25.099Z,33.19
2022-08-25T11:28:49.119Z,32.71
2022-08-25T11:31:15.663Z,34.52
2022-08-25T11:33:41.963Z,34.71
2022-08-25T11:36:08.329Z,35.06
2022-08-25T11:38:34.791Z,35.39
2022-08-25T11:41:01.190Z,35.39
2022-08-25T11:43:27.654Z,35.60
2022-08-25T11:45:54.432Z,34.58
2022-08-25T11:48:20.520Z,34.44
2022-08-25T11:50:46.947Z,34.47
2022-08-25T11:53:13.392Z,34.47
2022-08-25T11:55:39.786Z,34.53
2022-08-25T11:58:06.305Z,34.40
2022-08-25T12:00:32.531Z,33.84
2022-08-25T12:03:01.605Z,32.44
2022-08-25T12:05:25.431Z,32.93
2022-08-25T12:07:51.780Z,33.86
2022-08-25T12:10:18.165Z,33.96
2022-08-25T12:12:44.533Z,33.84
2022-08-25T12:15:10.902Z,33.06
2022-08-25T12:17:37.309Z,33.24
2022-08-25T12:20:03.672Z,32.40
2022-08-25T12:22:30.342Z,32.88
2022-08-25T12:24:56.727Z,32.52
2022-08-25T12:27:23.100Z,32.59
2022-08-25T12:29:49.575Z,32.40
2022-08-25T12:32:15.970Z,31.75
2022-08-25T12:34:42.424Z,32.28
2022-08-25T12:37:08.842Z,32.57
2022-08-25T12:39:35.214Z,32.38
2022-08-25T12:44:28.036Z,33.71
2022-08-25T12:46:54.421Z,33.74
2022-08-25T12:49:21.023Z,33.29
2022-08-25T12:51:48.676Z,32.72
2022-08-25T12:54:15.841Z,32.25
2022-08-25T12:56:40.068Z,32.57
2022-08-25T12:59:06.431Z,32.87
2022-08-25T13:01:35.819Z,32.91
2022-08-25T13:03:59.220Z,33.44
2022-08-25T13:06:25.586Z,33.49
2022-08-25T13:08:51.972Z,34.32
2022-08-25T13:11:20.230Z,34.88
2022-08-25T13:13:44.802Z,35.42
2022-08-25T13:16:11.187Z,34.92
2022-08-25T13:18:37.532Z,35.17
2022-08-25T13:21:03.912Z,35.20
2022-08-25T13:23:30.297Z,35.09
2022-08-25T13:25:58.376Z,35.34
2022-08-25T13:28:23.038Z,35.33
2022-08-25T13:30:49.450Z,35.03
2022-08-25T13:33:15.815Z,35.11
2022-08-25T13:35:42.197Z,35.59
2022-08-25T13:38:08.598Z,35.97
2022-08-25T13:40:34.989Z,36.03
2022-08-25T13:43:02.802Z,36.17
2022-08-25T13:45:27.881Z,36.69
2022-08-25T13:47:55.920Z,37.15
2022-08-25T13:50:20.641Z,36.42
2022-08-25T13:52:46.999Z,36.32
2022-08-25T13:55:13.365Z,36.76
2022-08-25T13:57:39.734Z,36.88
2022-08-25T14:00:06.269Z,37.04
2022-08-25T14:02:32.727Z,37.45
2022-08-25T14:04:59.029Z,36.94
2022-08-25T14:07:25.409Z,36.98
2022-08-25T14:09:52.172Z,36.87
2022-08-25T14:12:18.222Z,37.33
2022-08-25T14:14:44.660Z,37.47
2022-08-25T14:17:28.656Z,37.80
2022-08-25T14:19:37.450Z,37.70
2022-08-25T14:22:03.834Z,37.66
2022-08-25T14:24:30.206Z,37.60
2022-08-25T14:26:56.599Z,37.13
2022-08-25T14:29:22.981Z,36.83
2022-08-25T14:31:49.450Z,37.00
2022-08-25T14:34:15.742Z,37.15
2022-08-25T14:36:42.127Z,37.26
2022-08-25T14:39:08.687Z,37.03
2022-08-25T14:41:34.968Z,37.08
2022-08-25T14:44:01.447Z,36.94
2022-08-25T14:46:27.838Z,37.46
2022-08-25T14:48:54.231Z,37.41
2022-08-25T14:51:20.635Z,37.70
2022-08-25T14:53:47.036Z,37.45
2022-08-25T14:56:14.255Z,37.78
2022-08-25T14:58:48.575Z,38.35
2022-08-25T15:01:07.010Z,38.49
2022-08-25T15:03:32.710Z,38.64
2022-08-25T15:05:59.080Z,38.85
2022-08-25T15:08:27.219Z,38.96
2022-08-25T15:10:51.850Z,38.98
2022-08-25T15:13:18.340Z,39.61
2022-08-25T15:15:52.931Z,39.58
2022-08-25T15:18:11.080Z,39.97
2022-08-25T15:20:37.445Z,40.25
2022-08-25T15:23:03.828Z,39.96
2022-08-25T15:25:30.318Z,40.28
2022-08-25T15:27:56.716Z,40.31
2022-08-25T15:30:23.078Z,40.30
2022-08-25T15:32:49.490Z,40.44
2022-08-25T15:35:15.857Z,40.43
2022-08-25T15:37:42.272Z,40.87
2022-08-25T15:40:08.679Z,40.92
2022-08-25T15:42:35.123Z,41.13
2022-08-25T15:45:01.659Z,41.24
2022-08-25T15:47:28.049Z,41.50
2022-08-25T15:49:54.413Z,41.39
2022-08-25T15:52:20.973Z,41.45
2022-08-25T15:54:47.372Z,41.13
2022-08-25T15:57:24.217Z,41.49
2022-08-25T15:59:41.648Z,41.45
2022-08-25T16:02:06.785Z,41.79
2022-08-25T16:04:33.105Z,42.27
2022-08-25T16:06:59.890Z,42.44
2022-08-25T16:09:26.247Z,42.63
2022-08-25T16:11:57.689Z,42.71
2022-08-25T16:14:19.109Z,42.56
2022-08-25T16:16:45.510Z,42.87
2022-08-25T16:19:12.052Z,42.88
2022-08-25T16:21:45.419Z,43.08
2022-08-25T16:24:07.409Z,43.90
2022-08-25T16:26:31.330Z,44.22
2022-08-25T16:28:57.788Z,43.51
2022-08-25T16:31:24.274Z,43.18
2022-08-25T16:33:53.498Z,43.35
2022-08-25T16:36:17.092Z,42.99
2022-08-25T16:38:43.474Z,42.99
2022-08-25T16:41:09.893Z,44.15
2022-08-25T16:43:36.296Z,44.66
2022-08-25T16:46:02.657Z,45.02
2022-08-25T16:48:29.060Z,44.94
2022-08-25T16:50:55.429Z,45.33
2022-08-25T16:53:23.851Z,45.62
2022-08-25T16:55:48.223Z,44.31
2022-08-25T16:58:14.585Z,44.40
2022-08-25T17:00:40.991Z,44.81
2022-08-25T17:03:07.315Z,45.86
2022-08-25T17:05:33.705Z,46.20
2022-08-25T17:08:00.155Z,46.13
2022-08-25T17:10:26.456Z,46.80
2022-08-25T17:12:52.841Z,46.90
2022-08-25T17:15:19.250Z,46.47
2022-08-25T17:17:45.631Z,46.14
2022-08-25T17:20:12.011Z,46.94
2022-08-25T17:22:38.412Z,46.82
2022-08-25T17:25:06.819Z,46.68
2022-08-25T17:27:31.179Z,46.59
2022-08-25T17:29:57.565Z,47.52
2022-08-25T17:32:30.226Z,48.07
2022-08-25T17:34:50.340Z,47.63
2022-08-25T17:37:16.735Z,48.67
2022-08-25T17:39:43.123Z,48.69
2022-08-25T17:42:09.479Z,50.50
2022-08-25T17:44:35.866Z,49.74
2022-08-25T17:47:02.294Z,49.55
2022-08-25T17:49:28.927Z,49.20
2022-08-25T17:51:55.370Z,48.96
2022-08-25T17:54:21.797Z,49.93
2022-08-25T17:56:48.188Z,49.52
2022-08-25T17:59:14.595Z,50.09
2022-08-25T18:01:41.164Z,50.78
2022-08-25T18:04:07.319Z,50.45
2022-08-25T18:06:33.953Z,50.51
2022-08-25T18:09:00.382Z,51.25
2022-08-25T18:11:26.704Z,51.70
2022-08-25T18:13:53.094Z,52.44
2022-08-25T18:16:19.591Z,52.86
2022-08-25T18:18:45.982Z,52.97
2022-08-25T18:21:12.375Z,52.99
2022-08-25T18:23:38.740Z,53.07
2022-08-25T18:26:05.164Z,53.03
2022-08-25T18:28:31.551Z,53.51
2022-08-25T18:30:58.020Z,54.08
2022-08-25T18:33:24.343Z,53.68
2022-08-25T18:35:50.848Z,54.24
2022-08-25T18:38:17.280Z,54.32
2022-08-25T18:40:43.647Z,54.73
2022-08-25T18:43:10.048Z,54.77
2022-08-25T18:45:36.447Z,54.58
2022-08-25T18:48:02.886Z,54.59
2022-08-25T18:50:29.181Z,54.80
2022-08-25T18:52:55.560Z,54.63
2022-08-25T18:55:21.931Z,54.89
2022-08-25T18:57:48.307Z,55.31
2022-08-25T19:00:14.723Z,55.54
2022-08-25T19:02:41.196Z,55.84
2022-08-25T19:05:10.637Z,55.81
2022-08-25T19:07:33.860Z,56.25
2022-08-25T19:10:00.224Z,56.37
2022-08-25T19:12:26.625Z,56.60
2022-08-25T19:14:53.053Z,56.34
2022-08-25T19:17:19.437Z,56.49
2022-08-25T19:19:45.839Z,56.80
2022-08-25T19:22:26.514Z,57.07
2022-08-25T19:24:38.592Z,56.81
2022-08-25T19:27:04.974Z,56.84
2022-08-25T19:29:31.341Z,56.74
2022-08-25T19:31:57.722Z,56.64
2022-08-25T19:34:24.129Z,56.98
2022-08-25T19:36:50.514Z,57.15
2022-08-25T19:39:17.181Z,57.31
2022-08-25T19:41:43.575Z,57.54
2022-08-25T19:44:09.945Z,57.96
2022-08-25T19:46:36.452Z,58.45
2022-08-25T19:49:07.220Z,58.14
2022-08-25T19:51:29.513Z,58.20
2022-08-25T19:53:58.030Z,57.94
2022-08-25T19:56:22.283Z,58.24
2022-08-25T19:58:48.754Z,58.16
2022-08-25T20:01:18.353Z,58.40
2022-08-25T20:03:41.534Z,58.54
2022-08-25T20:06:08.147Z,58.10
2022-08-25T20:08:34.594Z,57.39
2022-08-25T20:11:00.962Z,56.84
2022-08-25T20:13:27.360Z,56.75
2022-08-25T20:15:57.703Z,55.86
2022-08-25T20:18:20.925Z,56.29
2022-08-25T20:20:47.255Z,56.08
2022-08-25T20:23:13.696Z,55.79
2022-08-25T20:25:40.128Z,55.84
2022-08-25T20:28:06.514Z,55.96
2022-08-25T20:30:32.958Z,55.74
2022-08-25T20:33:00.599Z,55.86
2022-08-25T20:35:27.168Z,56.38
2022-08-25T20:37:53.425Z,56.53
2022-08-25T20:40:20.776Z,56.37
2022-08-25T20:42:46.244Z,56.49
2022-08-25T20:45:12.622Z,56.54
2022-08-25T20:47:38.983Z,56.99
2022-08-25T20:50:06.957Z,57.32
2022-08-25T20:52:31.774Z,57.46
2022-08-25T20:54:58.139Z,57.64
2022-08-25T20:57:26.130Z,57.55
2022-08-25T20:59:50.930Z,56.99
2022-08-25T21:02:17.401Z,57.69
2022-08-25T21:04:48.907Z,57.83
2022-08-25T21:07:10.109Z,57.90
2022-08-25T21:09:36.538Z,58.05
2022-08-25T21:12:02.906Z,57.51
2022-08-25T21:14:29.333Z,57.52
2022-08-25T21:16:55.730Z,57.50
2022-08-25T21:19:26.367Z,57.49
2022-08-25T21:21:48.491Z,57.70
2022-08-25T21:24:14.873Z,58.02
2022-08-25T21:26:47.658Z,58.21
2022-08-25T21:29:07.633Z,58.73
2022-08-25T21:31:34.032Z,58.65
2022-08-25T21:34:00.458Z,58.54
2022-08-25T21:36:26.863Z,58.52
2022-08-25T21:38:53.329Z,58.43
2022-08-25T21:41:19.760Z,58.44
2022-08-25T21:43:46.165Z,58.51
2022-08-25T21:46:12.584Z,58.19
2022-08-25T21:48:38.922Z,58.47
2022-08-25T21:51:05.318Z,58.58
2022-08-25T21:53:31.697Z,59.15
2022-08-25T21:55:58.086Z,59.34
2022-08-25T21:58:24.486Z,59.73
2022-08-25T22:00:50.868Z,59.86
2022-08-25T22:03:17.245Z,59.58
2022-08-25T22:05:45.625Z,59.42
2022-08-25T22:08:10.024Z,59.29
2022-08-25T22:10:36.385Z,59.25
2022-08-25T22:13:02.812Z,60.13
2022-08-25T22:15:29.208Z,59.67
2022-08-25T22:17:55.585Z,59.64
2022-08-25T22:20:22.069Z,59.68
2022-08-25T22:22:48.450Z,58.77
2022-08-25T22:25:14.943Z,58.38
2022-08-25T22:27:41.309Z,59.99
2022-08-25T22:30:07.673Z,60.41
2022-08-25T22:32:34.035Z,61.51
2022-08-25T22:35:00.451Z,62.62
2022-08-25T22:37:26.814Z,63.55
2022-08-25T22:39:53.291Z,64.01
2022-08-25T22:42:19.607Z,64.15
2022-08-25T22:44:45.990Z,64.69
2022-08-25T22:47:12.348Z,64.14
2022-08-25T22:49:38.860Z,64.34
2022-08-25T22:52:05.255Z,64.68
2022-08-25T22:54:31.608Z,65.12
2022-08-25T22:56:57.997Z,65.92
2022-08-25T22:59:24.387Z,66.40
2022-08-25T23:01:50.746Z,66.81
2022-08-25T23:04:17.696Z,67.01
2022-08-25T23:06:43.630Z,67.16
2022-08-25T23:09:09.992Z,67.08
2022-08-25T23:11:38.656Z,66.96
2022-08-25T23:14:02.792Z,66.97
2022-08-25T23:16:29.257Z,67.12
2022-08-25T23:18:55.653Z,67.16
2022-08-25T23:21:24.170Z,67.15
2022-08-25T23:23:48.515Z,66.98
2022-08-25T23:26:14.945Z,67.33
2022-08-25T23:28:41.382Z,67.64
2022-08-25T23:31:07.739Z,67.60
2022-08-25T23:33:34.138Z,67.31
2022-08-25T23:36:00.503Z,67.43
2022-08-25T23:38:26.871Z,67.19
2022-08-25T23:40:53.268Z,67.18
2022-08-25T23:43:19.676Z,67.28
2022-08-25T23:45:46.082Z,67.48
2022-08-25T23:48:12.463Z,67.59
2022-08-25T23:50:38.866Z,67.52
2022-08-25T23:53:05.304Z,67.84
2022-08-25T23:55:33.637Z,67.87
2022-08-25T23:57:57.988Z,67.81
